Ahoskie, North Carolina
Current Conditions -  °F | °C
As of 6:15 PM on Wednesday 22 Oct 2014 (Local Time) from KASJ Reporting Station
Broken Clouds Broken Clouds  
Wind Chill: 56°   Ceiling: 6000
Heat Index: 56°   Visibility: 10mi
Dew Point: 46°   Wind: 7mph
Humidity: 69%   Direction: 330°NNW
Pressure: 29.93"   Gusts: 18mph
Location:  36.29°N, 76.98°W
Report Text: KASJ 222215Z AUTO 33006G16KT 10SM SCT043 BKN060 14/08 A2993 RMK AO2 T01360080
Loading
Personal Weather Stations






























Interactive Weather Map
Tropical Storm Tracking
New forecast layout! Learn more

10-Day Weather Forecast

Advertisements
Track Severe Weather on mobile